Details From OPLA - Allama Iqbal Intl
To OPRN - Chaklala
Flight Number -
Tags Novice Generated
Created
Modified
Stats Distance 142 nm / 263 km
Max Altitude 600 ft / 183 m
Waypoints 8
Social Downloads 10
Likes 0
Share VATSIM

Download

Looking for another format? Having issues loading an existing format? Contact us
Advertisement - Login to hide

Notes

Departing runway 36 OPLA. Arriving runway 11 OPRN.

Route

OPLA +31.61_+074.41 +31.66_+074.38 +32.36_+073.96 +33.48_+073.26 +33.53_+073.24 +33.58_+073.19 OPRN

ID Type Via Altitude Latitude Longitude Leg Dist Tot Dist Heading (true) Name
O OPLA APT - 0 ft / 0 m 31.53665˚ 74.40484˚ - 0 nm - -
+31.61_+074.41 LATLON - 600 ft / 183 m 31.60901˚ 74.40614˚ 4 nm 4 nm 1° / 1° -
+31.66_+074.38 LATLON - 600 ft / 183 m 31.66370˚ 74.38386˚ 3 nm 7 nm 341° / 341° -
+32.36_+073.96 LATLON - 600 ft / 183 m 32.35821˚ 73.95810˚ 47 nm 54 nm 333° / 332° -
+33.48_+073.26 LATLON - 600 ft / 183 m 33.47841˚ 73.26280˚ 75 nm 130 nm 333° / 332° -
+33.53_+073.24 LATLON - 600 ft / 183 m 33.53220˚ 73.23713˚ 3 nm 134 nm 338° / 338° -
+33.58_+073.19 LATLON - 600 ft / 183 m 33.57543˚ 73.19093˚ 3 nm 137 nm 318° / 318° -
O OPRN APT - 0 ft / 0 m 33.60976˚ 73.11445˚ 4 nm 141 nm 298° / 298° -

Altitude Profile

Advertisement - Login to hide

OPLA

Details ICAO OPLA (LHE)
Name ALLAMA IQBAL INTL
Region Pakistan
Timezone Asia/Karachi (UTC+5.0)
Stats Elevation 712 ft / 217 m (AMSL)
Location 31.521562° 74.403591°
Runways 2
Magnetic Variation 2.011° E

METAR

OPLA 111625Z 09006KT 2500 TSRA FEW030CB SCT040 OVC100 12/10 Q1013/A29.90

Decode

TAF

Not found

Departure Runways

ID Width Length Bearing (true) Bearing (mag) Surface Threshold Offset Overrun Length
18L 151 ft / 46 m 11,014 ft / 3,357 m 180.88° 178.87° Concrete 0 ft / 0 m 410 ft / 125 m
18R 151 ft / 46 m 9,023 ft / 2,750 m 180.87° 178.86° Asphalt 0 ft / 0 m 915 ft / 279 m
36L 151 ft / 46 m 9,023 ft / 2,750 m 0.87° 358.86° Asphalt 0 ft / 0 m 0 ft / 0 m
36R 151 ft / 46 m 11,014 ft / 3,357 m 0.88° 358.87° Concrete 0 ft / 0 m 420 ft / 128 m

OPRN

Details ICAO OPRN (ISB)
Name CHAKLALA
Region Pakistan
Timezone Asia/Karachi (UTC+5.0)
Stats Elevation 1,668 ft / 508 m (AMSL)
Location 33.616768° 73.098812°
Runways 1
Magnetic Variation 2.613° E

METAR

OPRN 111630Z 00000KT 2000 -RA SCT008ST BKN030 12/11 Q1014.0/29.95

Decode

TAF

Not found

Destination Runways

ID Width Length Bearing (true) Bearing (mag) Surface Threshold Offset Overrun Length
12 150 ft / 46 m 10,795 ft / 3,290 m 118.28° 115.67° Asphalt 885 ft / 270 m 680 ft / 207 m
30 150 ft / 46 m 10,795 ft / 3,290 m 298.30° 295.69° Asphalt 885 ft / 270 m 740 ft / 226 m

Approach Navaids

Runway Type Ident Frequency Range Bearing (true) Bearing (mag) Slope Elevation
30 Localiser IRN 110.30 MHz 18 nm / 33 km 298.21° 295.60° - 1,656 ft / 505 m (AMSL)
30 Glidescope IRN 110.30 MHz 10 nm / 19 km 298.29° 295.68° 3.00° 1,707 ft / 520 m (AMSL)
30 DME IRN 110.30 MHz 18 nm / 33 km - - - 1,713 ft / 522 m (AMSL)

Popular Alternatives